Time;durP1;ratioP1;P1;durP2;ratioP2;P2;SDS_P1;SDS_P2;PMS_P1;PMS_P2;Temp;Humidity;BMP_temperature;BMP_pressure;BME280_temperature;BME280_humidity;BME280_pressure;Samples;Min_cycle;Max_cycle;Signal;HPM_P1;HPM_P2
2023/09/13 00:01:41;;;;;;;23.80;17.10;;;;;;;18.77;93.71;100117.02;217684;1292;141006;-88
2023/09/13 00:06:41;;;;;;;21.40;15.40;;;;;;;18.75;93.94;100112.36;218231;1294;139768;-88
2023/09/13 00:11:41;;;;;;;26.10;16.90;;;;;;;18.75;93.97;100110.86;217706;1289;142293;-88
2023/09/13 00:16:42;;;;;;;24.40;16.90;;;;;;;18.75;94.59;100107.98;218378;1293;139130;-88
2023/09/13 00:21:42;;;;;;;23.00;16.50;;;;;;;18.75;94.63;100099.55;217937;1288;142756;-88
2023/09/13 00:26:43;;;;;;;28.40;19.50;;;;;;;18.75;94.81;100094.91;218355;1291;139980;-88
2023/09/13 00:31:43;;;;;;;27.40;20.40;;;;;;;18.76;93.06;100093.64;217700;1289;141446;-87
2023/09/13 00:36:44;;;;;;;22.90;17.30;;;;;;;18.77;92.94;100088.74;218241;1291;139542;-87
2023/09/13 00:41:44;;;;;;;29.00;21.40;;;;;;;18.78;93.17;100081.05;217851;1288;142709;-88
2023/09/13 00:46:45;;;;;;;34.10;21.50;;;;;;;18.80;92.93;100078.06;218483;1289;139540;-87
2023/09/13 00:51:47;;;;;;;30.10;23.00;;;;;;;18.81;93.19;100078.73;218267;1291;141512;-88
2023/09/13 00:56:47;;;;;;;28.40;18.80;;;;;;;18.81;92.42;100078.98;218674;1289;138058;-88
2023/09/13 01:01:48;;;;;;;27.40;21.30;;;;;;;18.81;93.57;100082.65;217782;1291;141128;-88
2023/09/13 01:06:48;;;;;;;28.20;21.00;;;;;;;18.78;93.16;100091.17;218475;1288;140225;-88
2023/09/13 01:11:50;;;;;;;27.00;19.50;;;;;;;18.76;93.97;100094.10;217894;1288;141951;-88
2023/09/13 01:16:53;;;;;;;27.90;21.60;;;;;;;18.71;94.13;100089.46;218408;1289;139222;-88
2023/09/13 01:22:32;;;;;;;25.50;18.30;;;;;;;18.66;93.52;100087.05;217979;1288;142526;-87
2023/09/13 01:28:17;;;;;;;25.20;19.60;;;;;;;18.62;94.51;100075.20;218286;1288;139649;-88
2023/09/13 01:33:17;;;;;;;31.80;21.10;;;;;;;18.56;95.12;100071.71;217536;1288;141894;-88
2023/09/13 01:38:18;;;;;;;32.00;20.50;;;;;;;18.51;95.05;100061.32;218383;1288;139768;-88
2023/09/13 01:43:20;;;;;;;29.20;21.70;;;;;;;18.48;94.97;100065.89;217798;1289;141014;-88
2023/09/13 01:48:21;;;;;;;30.60;20.60;;;;;;;18.44;95.77;100063.92;218268;1288;139889;-88
2023/09/13 01:53:22;;;;;;;32.50;20.80;;;;;;;18.39;96.01;100058.08;217830;1288;142781;-88
2023/09/13 01:58:23;;;;;;;31.00;22.70;;;;;;;18.32;96.01;100054.75;218394;1290;111220;-87
2023/09/13 02:03:23;;;;;;;32.20;23.60;;;;;;;18.29;94.72;100055.85;217711;1290;142125;-87
2023/09/13 02:08:23;;;;;;;32.30;21.70;;;;;;;18.27;95.81;100056.45;218184;1288;140029;-87
2023/09/13 02:13:24;;;;;;;28.50;20.00;;;;;;;18.23;95.39;100047.27;217760;1289;141402;-87
2023/09/13 02:18:24;;;;;;;32.80;21.60;;;;;;;18.20;95.44;100050.66;218206;1290;139378;-87
2023/09/13 02:23:25;;;;;;;39.80;26.80;;;;;;;18.17;95.68;100051.86;217821;1288;140820;-88
2023/09/13 02:28:25;;;;;;;33.20;23.80;;;;;;;18.15;95.21;100045.80;218862;1288;95972;-87
2023/09/13 02:33:26;;;;;;;39.50;26.30;;;;;;;18.14;95.19;100048.69;217720;1288;141948;-87
2023/09/13 02:38:26;;;;;;;37.00;27.10;;;;;;;18.12;95.62;100045.39;218326;1288;139217;-87
2023/09/13 02:43:27;;;;;;;34.80;26.00;;;;;;;18.10;95.29;100037.25;217808;1289;141177;-87
2023/09/13 02:48:28;;;;;;;41.40;28.80;;;;;;;18.09;95.55;100024.93;218168;1289;139666;-88
2023/09/13 02:53:31;;;;;;;40.40;28.90;;;;;;;18.09;95.57;100023.29;217937;1288;143148;-88
2023/09/13 02:58:31;;;;;;;37.30;27.60;;;;;;;18.11;96.47;100021.31;218613;1289;95692;-88
2023/09/13 03:03:32;;;;;;;36.30;26.50;;;;;;;18.13;95.98;100016.02;218128;1288;140440;-88
2023/09/13 03:08:32;;;;;;;40.30;29.90;;;;;;;18.12;96.19;100006.55;218196;1289;139397;-88
2023/09/13 03:13:33;;;;;;;36.10;27.00;;;;;;;18.11;95.91;99999.98;217756;1289;141020;-88
2023/09/13 03:18:33;;;;;;;40.20;27.70;;;;;;;18.10;95.96;100006.30;218161;1288;139659;-88
2023/09/13 03:23:42;;;;;;;36.30;25.60;;;;;;;18.08;95.95;100010.55;217840;1291;143352;-88
2023/09/13 03:28:45;;;;;;;38.80;27.50;;;;;;;18.07;95.78;100011.78;218176;1288;139590;-88
2023/09/13 03:33:48;;;;;;;37.70;28.80;;;;;;;18.04;95.66;100001.50;217675;1288;142496;-88
2023/09/13 03:38:48;;;;;;;42.40;29.30;;;;;;;18.03;95.95;99986.27;218614;1289;139183;-88
2023/09/13 03:43:49;;;;;;;37.70;28.10;;;;;;;18.03;95.84;99995.58;217683;1289;142668;-88
2023/09/13 03:48:49;;;;;;;41.80;28.70;;;;;;;18.03;96.33;99987.71;218274;1288;139548;-88
2023/09/13 03:53:50;;;;;;;40.40;30.20;;;;;;;18.03;96.22;99992.15;217751;1289;141849;-88
2023/09/13 03:58:50;;;;;;;39.20;28.00;;;;;;;18.03;96.20;99990.33;218295;1289;139060;-88
2023/09/13 04:03:51;;;;;;;38.00;28.50;;;;;;;18.03;95.95;99984.29;217793;1289;141125;-89
2023/09/13 04:08:52;;;;;;;49.50;31.10;;;;;;;18.03;95.99;99985.89;218327;1289;139510;-88
2023/09/13 04:13:52;;;;;;;39.70;28.80;;;;;;;18.02;95.96;99995.84;217761;1288;141019;-88
2023/09/13 04:18:52;;;;;;;41.60;29.10;;;;;;;18.01;96.15;99997.52;218184;1289;139698;-88
2023/09/13 04:23:53;;;;;;;41.60;29.70;;;;;;;18.00;96.21;99998.20;217835;1289;140643;-87
2023/09/13 04:28:53;;;;;;;36.80;28.20;;;;;;;17.99;96.16;99996.39;218392;1288;139797;-88
2023/09/13 04:33:54;;;;;;;45.00;29.30;;;;;;;17.98;96.40;99997.86;217749;1288;143643;-88
2023/09/13 04:38:55;;;;;;;37.50;27.10;;;;;;;17.96;96.63;99995.83;218483;1288;140102;-87
2023/09/13 04:43:56;;;;;;;44.00;30.30;;;;;;;17.95;96.41;99994.11;217856;1291;141742;-88
2023/09/13 04:48:57;;;;;;;44.80;29.90;;;;;;;17.94;96.43;99994.70;218070;1290;140600;-87
2023/09/13 04:53:57;;;;;;;35.60;25.90;;;;;;;17.94;96.73;99985.14;217748;1289;141282;-88
2023/09/13 04:58:58;;;;;;;40.30;28.90;;;;;;;17.96;96.55;99989.16;218230;1288;140465;-88
2023/09/13 05:03:58;;;;;;;40.20;27.90;;;;;;;17.98;96.58;100005.26;217886;1288;141485;-87
2023/09/13 05:08:59;;;;;;;44.80;29.30;;;;;;;18.01;96.69;100002.39;218222;1289;139315;-88
2023/09/13 05:14:12;;;;;;;41.20;30.40;;;;;;;18.06;97.12;100009.11;217860;1288;141596;-88
2023/09/13 05:19:13;;;;;;;55.50;31.50;;;;;;;18.11;97.72;100008.34;217869;1288;140299;-88
2023/09/13 05:24:14;;;;;;;36.80;27.00;;;;;;;18.15;96.87;100016.19;218188;1288;140348;-88
2023/09/13 05:29:14;;;;;;;40.70;29.10;;;;;;;18.18;97.28;100011.16;217415;1288;141222;-88
2023/09/13 05:34:15;;;;;;;38.60;29.90;;;;;;;18.23;97.16;100004.67;218278;1289;96539;-88
2023/09/13 05:39:15;;;;;;;45.90;30.90;;;;;;;18.27;97.01;100006.06;217860;1289;141069;-88
2023/09/13 05:44:23;;;;;;;43.20;31.10;;;;;;;18.34;97.46;100009.02;218253;1290;139342;-87
2023/09/13 05:49:24;;;;;;;43.20;31.00;;;;;;;18.45;97.79;100009.66;217625;1288;142484;-88
2023/09/13 05:54:28;;;;;;;52.30;35.80;;;;;;;18.54;98.30;100055.59;218230;1289;141075;-88
2023/09/13 05:59:35;;;;;;;46.30;32.70;;;;;;;18.72;98.49;100036.39;217499;1288;140480;-88
2023/09/13 06:04:35;;;;;;;52.40;33.40;;;;;;;18.87;98.18;100049.98;218549;1288;110659;-89
2023/09/13 06:09:36;;;;;;;48.60;33.80;;;;;;;19.05;98.69;100079.42;217798;1288;140807;-89
2023/09/13 06:14:36;;;;;;;44.30;31.90;;;;;;;19.26;98.91;100087.83;218206;1288;139280;-89
2023/09/13 06:19:37;;;;;;;42.70;30.80;;;;;;;19.46;99.07;100080.77;217744;1288;141270;-89
2023/09/13 06:24:38;;;;;;;43.90;33.30;;;;;;;19.70;99.12;100130.52;218280;1288;139954;-88
2023/09/13 06:29:38;;;;;;;43.90;30.30;;;;;;;19.97;98.94;100154.56;217922;1289;140827;-88
2023/09/13 06:34:39;;;;;;;41.10;32.50;;;;;;;20.23;98.67;100158.13;218368;1290;95951;-87
2023/09/13 06:39:39;;;;;;;41.10;29.00;;;;;;;20.50;98.28;100155.23;217701;1288;141320;-87
2023/09/13 06:44:40;;;;;;;37.50;28.90;;;;;;;20.78;98.18;100142.05;218098;1288;139366;-88
2023/09/13 06:49:40;;;;;;;38.40;27.80;;;;;;;21.08;97.52;100143.95;217680;1288;140979;-87
2023/09/13 06:54:41;;;;;;;33.40;26.60;;;;;;;21.36;96.45;100132.05;218215;1288;140102;-87
2023/09/13 06:59:42;;;;;;;35.60;24.90;;;;;;;21.61;95.45;100114.12;217605;1288;142863;-87
2023/09/13 07:04:42;;;;;;;31.30;23.70;;;;;;;21.79;93.88;100102.94;218419;1288;96802;-87
2023/09/13 07:09:45;;;;;;;28.40;22.50;;;;;;;21.95;93.59;100097.33;217849;1288;140101;-86
2023/09/13 07:14:45;;;;;;;23.20;18.50;;;;;;;22.09;91.59;100084.48;218275;1288;139829;-88
2023/09/13 07:19:46;;;;;;;21.80;15.60;;;;;;;22.19;90.19;100080.96;217447;1289;142059;-88
2023/09/13 07:24:46;;;;;;;20.40;15.00;;;;;;;22.22;88.89;100068.58;218084;1289;140768;-88
2023/09/13 07:29:47;;;;;;;27.50;16.40;;;;;;;22.29;89.00;100058.44;217654;1288;140961;-88
2023/09/13 07:34:48;;;;;;;22.20;16.80;;;;;;;22.31;89.32;100050.26;218184;1288;139330;-86
2023/09/13 07:39:48;;;;;;;21.70;16.60;;;;;;;22.27;89.03;100052.27;217764;1288;141170;-88
2023/09/13 07:44:49;;;;;;;25.40;16.60;;;;;;;22.24;89.83;100052.81;218125;1290;140020;-87
2023/09/13 07:49:50;;;;;;;24.70;18.60;;;;;;;22.04;90.48;100030.73;217688;1288;142063;-87
2023/09/13 07:54:51;;;;;;;25.70;17.50;;;;;;;21.81;91.60;100022.23;218287;1289;140015;-88
2023/09/13 07:59:51;;;;;;;26.70;18.30;;;;;;;21.79;92.46;100017.77;217758;1288;141518;-87
2023/09/13 08:04:52;;;;;;;24.00;17.30;;;;;;;21.70;92.85;100011.52;218330;1289;139684;-88
2023/09/13 08:09:52;;;;;;;24.40;16.10;;;;;;;21.69;93.12;100009.31;217921;1288;139615;-88
2023/09/13 08:14:52;;;;;;;24.60;18.00;;;;;;;21.70;92.83;100023.69;218368;1288;140297;-87
2023/09/13 08:19:53;;;;;;;24.70;18.10;;;;;;;21.73;93.13;100022.89;217950;1289;140799;-87
2023/09/13 08:24:53;;;;;;;22.00;17.20;;;;;;;21.78;93.33;100034.45;218481;1290;140144;-87
2023/09/13 08:29:55;;;;;;;22.70;17.60;;;;;;;21.84;93.10;100047.64;217806;1289;140695;-87
2023/09/13 08:34:56;;;;;;;23.90;16.80;;;;;;;21.84;91.81;100050.94;218116;1290;140284;-88
2023/09/13 08:39:56;;;;;;;20.80;15.50;;;;;;;21.88;91.20;100069.92;218409;1292;142285;-87
2023/09/13 08:44:59;;;;;;;20.70;15.50;;;;;;;21.91;90.95;100047.48;218225;1289;139152;-86
2023/09/13 08:50:01;;;;;;;23.10;16.00;;;;;;;21.91;90.41;100047.30;217806;1288;142918;-87
2023/09/13 08:55:04;;;;;;;24.30;17.40;;;;;;;21.85;91.15;100023.11;218313;1288;139901;-86
2023/09/13 09:00:08;;;;;;;24.90;17.80;;;;;;;21.74;92.05;100031.02;217823;1288;141747;-86
2023/09/13 09:05:12;;;;;;;29.10;18.00;;;;;;;21.69;92.14;100057.59;218144;1288;139755;-84
2023/09/13 09:10:13;;;;;;;29.80;16.70;;;;;;;21.66;91.90;100077.82;217759;1290;141737;-86
2023/09/13 09:15:14;;;;;;;28.70;17.40;;;;;;;21.55;93.46;100054.73;218316;1288;140130;-86
2023/09/13 09:20:15;;;;;;;27.80;18.70;;;;;;;21.44;94.47;100036.31;217807;1288;141933;-86
2023/09/13 09:25:16;;;;;;;24.20;17.30;;;;;;;21.36;95.22;100031.17;218483;1288;139789;-86
2023/09/13 09:30:27;;;;;;;24.50;17.20;;;;;;;21.26;95.58;100017.49;217753;1288;141123;-86
2023/09/13 09:35:28;;;;;;;31.10;18.40;;;;;;;21.22;95.97;100024.60;218284;1288;140116;-86
2023/09/13 09:40:37;;;;;;;26.30;18.80;;;;;;;21.14;95.75;100039.30;217826;1290;141128;-86
2023/09/13 09:45:37;;;;;;;28.70;18.30;;;;;;;21.09;95.84;100053.07;218147;1290;139335;-87
2023/09/13 09:50:39;;;;;;;32.30;18.50;;;;;;;21.07;95.85;100060.70;217889;1288;142243;-85
2023/09/13 09:55:41;;;;;;;25.10;18.60;;;;;;;21.03;96.61;100078.26;218594;1288;138356;-86
2023/09/13 10:00:54;;;;;;;29.50;21.20;;;;;;;20.97;97.06;100091.85;217810;1288;141967;-86
2023/09/13 10:06:06;;;;;;;31.30;19.50;;;;;;;20.90;98.37;100102.17;218381;1288;139864;-87
2023/09/13 10:11:14;;;;;;;29.00;19.90;;;;;;;20.83;99.79;100096.96;217740;1288;141585;-87
2023/09/13 10:16:17;;;;;;;28.70;20.30;;;;;;;20.80;100.00;100089.79;218471;1288;95985;-87
2023/09/13 10:21:24;;;;;;;27.00;20.80;;;;;;;20.82;100.00;100090.50;217802;1288;141063;-87
2023/09/13 10:26:25;;;;;;;27.60;20.10;;;;;;;20.86;100.00;100089.41;218167;1288;139381;-89
2023/09/13 10:31:33;;;;;;;30.20;21.60;;;;;;;20.96;100.00;100093.86;217859;1291;142083;-88
2023/09/13 10:36:45;;;;;;;30.90;20.50;;;;;;;21.07;100.00;100097.36;218373;1288;139436;-87
2023/09/13 10:41:52;;;;;;;28.40;20.20;;;;;;;21.23;100.00;100100.13;217962;1288;142377;-87
2023/09/13 10:46:55;;;;;;;28.90;19.50;;;;;;;21.39;100.00;100114.34;218350;1288;139320;-87
2023/09/13 10:51:58;;;;;;;28.30;18.90;;;;;;;21.58;100.00;100118.09;217846;1288;142850;-88
2023/09/13 10:56:59;;;;;;;24.70;17.50;;;;;;;21.80;100.00;100117.65;218068;1290;365227;-86
2023/09/13 11:02:04;;;;;;;20.60;15.30;;;;;;;22.00;98.74;100121.71;218295;1288;141489;-88
2023/09/13 11:07:05;;;;;;;29.10;14.90;;;;;;;22.16;96.36;100119.83;218154;1288;139803;-86
2023/09/13 11:12:11;;;;;;;25.20;15.40;;;;;;;22.33;95.66;100137.01;217968;1288;141280;-87
2023/09/13 11:17:37;;;;;;;21.50;14.80;;;;;;;22.47;94.50;100139.88;218399;1288;139577;-88
2023/09/13 11:22:37;;;;;;;27.50;15.00;;;;;;;22.59;93.24;100151.31;217781;1291;142047;-87
2023/09/13 11:27:38;;;;;;;20.30;14.30;;;;;;;22.77;93.58;100155.60;218149;1289;139277;-87
2023/09/13 11:32:53;;;;;;;61.10;16.30;;;;;;;22.92;92.64;100153.71;217815;1288;141419;-88
2023/09/13 11:37:54;;;;;;;27.50;13.10;;;;;;;23.09;91.77;100149.08;218187;1288;140168;-87
2023/09/13 11:42:55;;;;;;;33.90;14.40;;;;;;;23.19;91.10;100153.73;217869;1291;141403;-87
2023/09/13 11:47:56;;;;;;;35.80;14.70;;;;;;;23.30;90.29;100153.66;218131;1290;140229;-86
2023/09/13 11:53:14;;;;;;;40.80;13.80;;;;;;;23.41;90.02;100149.05;217759;1288;141721;-86
2023/09/13 11:58:18;;;;;;;19.30;12.00;;;;;;;23.57;88.73;100148.52;218213;1290;96054;-87
2023/09/13 12:03:18;;;;;;;18.70;13.20;;;;;;;23.67;87.40;100143.42;217775;1288;140989;-87
2023/09/13 12:08:27;;;;;;;16.90;12.50;;;;;;;23.74;86.43;100145.36;218424;1288;138996;-85
2023/09/13 12:13:48;;;;;;;17.00;11.70;;;;;;;23.84;86.11;100132.16;217615;1289;141613;-87
2023/09/13 12:18:50;;;;;;;22.70;15.40;;;;;;;23.93;85.74;100129.21;218359;1291;105184;-88
2023/09/13 12:23:52;;;;;;;21.50;16.00;;;;;;;23.93;85.76;100140.42;217814;1289;141197;-87
2023/09/13 12:29:17;;;;;;;18.60;14.10;;;;;;;23.95;86.43;100144.04;218461;1288;96140;-86
2023/09/13 12:34:27;;;;;;;18.90;14.40;;;;;;;24.00;87.10;100139.25;217877;1291;284705;-87
2023/09/13 12:39:30;;;;;;;20.70;15.10;;;;;;;24.18;87.76;100135.54;218507;1289;139106;-86
2023/09/13 12:44:47;;;;;;;21.00;15.10;;;;;;;24.32;86.13;100133.11;218611;1288;139464;-87
2023/09/13 12:49:50;;;;;;;18.80;14.10;;;;;;;24.37;85.08;100142.77;217722;1291;210274;-86
2023/09/13 12:54:51;;;;;;;17.80;13.20;;;;;;;24.43;84.80;100139.23;218100;1288;139665;-87
2023/09/13 12:59:51;;;;;;;20.30;14.70;;;;;;;24.58;84.64;100139.88;217669;1291;141160;-86
2023/09/13 13:04:53;;;;;;;19.30;13.50;;;;;;;24.66;83.73;100132.90;218462;1288;96073;-86
2023/09/13 13:10:03;;;;;;;21.00;13.30;;;;;;;24.85;83.46;100129.88;217828;1288;140887;-86
2023/09/13 13:15:04;;;;;;;18.50;13.60;;;;;;;25.04;83.58;100130.31;218394;1288;137821;-87
2023/09/13 13:20:06;;;;;;;24.60;13.80;;;;;;;25.19;82.90;100130.56;217656;1289;141265;-86
2023/09/13 13:25:06;;;;;;;18.60;13.80;;;;;;;25.26;81.89;100125.79;218255;1288;139338;-87
2023/09/13 13:30:08;;;;;;;19.40;12.50;;;;;;;25.41;81.75;100121.67;217861;1288;141743;-86
2023/09/13 13:35:08;;;;;;;20.10;13.90;;;;;;;25.56;80.92;100112.38;218035;1289;139165;-87
2023/09/13 13:40:09;;;;;;;18.50;12.60;;;;;;;25.75;81.11;100111.55;217864;1291;141655;-86
2023/09/13 13:45:11;;;;;;;21.10;12.20;;;;;;;25.89;79.93;100110.61;218116;1288;139362;-86
2023/09/13 13:50:12;;;;;;;13.00;8.80;;;;;;;25.96;78.68;100108.54;217729;1291;141797;-88
2023/09/13 13:55:12;;;;;;;11.00;6.10;;;;;;;25.96;76.19;100114.89;218305;1288;139849;-87
2023/09/13 14:00:14;;;;;;;11.40;5.70;;;;;;;25.91;73.30;100116.04;217801;1288;141361;-87
2023/09/13 14:05:14;;;;;;;11.70;5.90;;;;;;;25.85;72.83;100107.25;218221;1291;139086;-87
2023/09/13 14:10:15;;;;;;;13.20;6.70;;;;;;;25.83;73.78;100105.47;217876;1291;140947;-87
2023/09/13 14:15:20;;;;;;;11.00;6.80;;;;;;;25.83;73.84;100100.96;218335;1288;139577;-86
2023/09/13 14:20:20;;;;;;;27.90;7.20;;;;;;;25.81;73.25;100094.94;217657;1290;140507;-85
2023/09/13 14:25:22;;;;;;;12.40;6.90;;;;;;;25.77;72.43;100091.91;218193;1288;139729;-84
2023/09/13 14:30:23;;;;;;;10.70;6.50;;;;;;;25.68;72.64;100092.27;217880;1292;140985;-87
2023/09/13 14:35:23;;;;;;;11.00;6.00;;;;;;;25.57;72.88;100090.70;218191;1289;139692;-87
2023/09/13 14:40:24;;;;;;;9.40;6.40;;;;;;;25.49;73.54;100084.58;217739;1291;143050;-85
2023/09/13 14:45:24;;;;;;;12.30;6.00;;;;;;;25.41;73.47;100079.15;218121;1291;140262;-85
2023/09/13 14:50:25;;;;;;;9.50;4.50;;;;;;;25.31;72.69;100080.35;217748;1288;142108;-86
2023/09/13 14:55:25;;;;;;;7.70;4.40;;;;;;;25.17;72.56;100080.18;218205;1288;138887;-85
2023/09/13 15:00:26;;;;;;;8.10;3.90;;;;;;;25.07;73.26;100081.98;217775;1288;141351;-86
2023/09/13 15:05:27;;;;;;;12.00;4.30;;;;;;;25.00;73.90;100085.48;218312;1289;139417;-87
2023/09/13 15:10:27;;;;;;;8.80;4.60;;;;;;;24.98;74.50;100089.23;217830;1290;141052;-87
2023/09/13 15:15:28;;;;;;;8.90;4.40;;;;;;;24.89;74.26;100099.40;218749;1288;138934;-86
2023/09/13 15:20:28;;;;;;;7.10;4.10;;;;;;;24.79;74.98;100104.28;217834;1292;141310;-87
2023/09/13 15:25:28;;;;;;;8.00;3.80;;;;;;;24.71;75.12;100109.94;218279;1288;138872;-87
2023/09/13 15:30:29;;;;;;;11.00;3.90;;;;;;;24.64;75.31;100118.81;217713;1288;141344;-85
2023/09/13 15:35:29;;;;;;;8.30;4.10;;;;;;;24.53;75.34;100129.42;218306;1288;139773;-86
2023/09/13 15:40:30;;;;;;;6.10;3.30;;;;;;;24.42;75.63;100126.83;217701;1291;141057;-87
2023/09/13 15:45:32;;;;;;;8.30;3.40;;;;;;;24.34;75.68;100130.86;218243;1289;139012;-85
2023/09/13 15:50:33;;;;;;;6.00;3.20;;;;;;;24.24;75.81;100134.26;217760;1289;141401;-86
2023/09/13 15:55:33;;;;;;;6.90;3.10;;;;;;;24.14;76.21;100133.55;218806;1288;139051;-86
2023/09/13 16:00:34;;;;;;;6.70;3.40;;;;;;;24.05;76.59;100134.73;217905;1288;143085;-87
2023/09/13 16:05:35;;;;;;;5.80;3.10;;;;;;;23.99;76.71;100128.60;218263;1291;139785;-85
2023/09/13 16:10:36;;;;;;;3.70;2.00;;;;;;;23.91;75.82;100133.09;217661;1291;141216;-86
2023/09/13 16:15:36;;;;;;;5.80;2.40;;;;;;;23.79;74.16;100135.07;218607;1292;139186;-88
2023/09/13 16:20:37;;;;;;;3.20;2.00;;;;;;;23.67;74.38;100140.85;217914;1289;140897;-88
2023/09/13 16:25:37;;;;;;;4.00;1.70;;;;;;;23.48;74.08;100150.73;218320;1293;139333;-85
2023/09/13 16:30:38;;;;;;;2.10;1.20;;;;;;;23.32;73.67;100151.80;217759;1288;140852;-86
2023/09/13 16:35:38;;;;;;;3.40;1.80;;;;;;;23.17;74.04;100161.96;218378;1293;139509;-88
2023/09/13 16:40:39;;;;;;;2.90;1.70;;;;;;;23.05;75.05;100168.33;217636;1290;141217;-88
2023/09/13 16:45:39;;;;;;;3.30;1.80;;;;;;;22.97;75.64;100166.48;218171;1290;139989;-86
2023/09/13 16:50:39;;;;;;;5.40;1.90;;;;;;;22.84;76.02;100170.85;217609;1294;141048;-86
2023/09/13 16:55:41;;;;;;;4.40;1.90;;;;;;;22.73;76.53;100177.95;218313;1289;140029;-86
2023/09/13 17:00:42;;;;;;;3.30;1.70;;;;;;;22.57;76.84;100181.85;217742;1289;140866;-86
2023/09/13 17:05:43;;;;;;;5.90;2.10;;;;;;;22.39;77.81;100184.59;218104;1289;139094;-87
2023/09/13 17:10:44;;;;;;;5.50;1.90;;;;;;;22.24;78.28;100196.39;217812;1289;142563;-86
2023/09/13 17:15:44;;;;;;;4.20;1.90;;;;;;;22.14;78.86;100200.09;219301;1289;138019;-85
2023/09/13 17:20:44;;;;;;;5.10;2.20;;;;;;;22.03;79.64;100210.31;218245;1289;141137;-86
2023/09/13 17:25:45;;;;;;;4.10;1.70;;;;;;;21.90;80.32;100213.54;218061;1294;139048;-86
2023/09/13 17:30:45;;;;;;;4.90;2.50;;;;;;;21.80;81.43;100212.58;217674;1288;141039;-85
2023/09/13 17:35:47;;;;;;;5.40;2.50;;;;;;;21.71;81.79;100211.30;218137;1288;141456;-86
2023/09/13 17:40:48;;;;;;;5.30;2.50;;;;;;;21.60;82.84;100211.29;217590;1289;140517;-85
2023/09/13 17:45:48;;;;;;;7.20;2.60;;;;;;;21.50;83.44;100207.90;218043;1290;138979;-89
2023/09/13 17:50:49;;;;;;;4.80;2.50;;;;;;;21.42;84.23;100217.88;217861;1288;141189;-88
2023/09/13 17:55:52;;;;;;;4.40;2.20;;;;;;;21.34;84.93;100225.67;218092;1289;139190;-88
2023/09/13 18:00:52;;;;;;;6.10;2.30;;;;;;;21.28;85.81;100229.42;217716;1290;141335;-88
2023/09/13 18:05:53;;;;;;;4.40;2.30;;;;;;;21.22;86.32;100240.21;218140;1288;138997;-86
2023/09/13 18:10:53;;;;;;;5.90;2.10;;;;;;;21.15;86.56;100251.96;218490;1288;141478;-87
2023/09/13 18:15:53;;;;;;;3.90;2.30;;;;;;;21.07;87.46;100260.73;218207;1288;139333;-87
2023/09/13 18:20:54;;;;;;;9.20;3.70;;;;;;;21.00;88.22;100268.33;217520;1289;142175;-87
2023/09/13 18:25:57;;;;;;;5.50;2.70;;;;;;;20.94;88.71;100280.19;218009;1289;139585;-88
2023/09/13 18:31:05;;;;;;;7.90;3.00;;;;;;;20.91;89.52;100285.89;217599;1288;141970;-89
2023/09/13 18:36:05;;;;;;;6.10;3.30;;;;;;;20.85;90.21;100297.16;218007;1289;140104;-85
2023/09/13 18:41:06;;;;;;;7.80;4.00;;;;;;;20.82;90.53;100302.06;217849;1289;141115;-86
2023/09/13 18:46:08;;;;;;;9.90;3.90;;;;;;;20.77;91.02;100310.30;218230;1290;139096;-86
2023/09/13 18:51:08;;;;;;;8.30;4.80;;;;;;;20.73;91.66;100317.80;217682;1288;140687;-91
2023/09/13 18:56:10;;;;;;;7.40;4.40;;;;;;;20.68;92.50;100326.60;218224;1288;139052;-86
2023/09/13 19:01:11;;;;;;;7.90;4.40;;;;;;;20.65;92.92;100336.20;217602;1288;141257;-87
2023/09/13 19:06:12;;;;;;;11.60;6.50;;;;;;;20.63;93.32;100350.61;218241;1288;139348;-86
2023/09/13 19:11:13;;;;;;;9.80;4.90;;;;;;;20.59;93.33;100355.86;217702;1288;140636;-86
2023/09/13 19:16:14;;;;;;;7.50;4.90;;;;;;;20.52;93.00;100366.55;218317;1288;96445;-87
2023/09/13 19:21:15;;;;;;;7.60;4.80;;;;;;;20.47;93.02;100373.42;217657;1289;140521;-86
2023/09/13 19:26:16;;;;;;;7.20;4.80;;;;;;;20.43;93.34;100376.66;218263;1289;139275;-87
2023/09/13 19:31:21;;;;;;;8.90;4.70;;;;;;;20.40;93.59;100382.56;217671;1288;141915;-87
2023/09/13 19:36:21;;;;;;;7.70;4.50;;;;;;;20.38;93.82;100380.73;218184;1288;140724;-88
2023/09/13 19:41:22;;;;;;;7.80;4.70;;;;;;;20.36;94.11;100390.13;217737;1288;141650;-87
2023/09/13 19:46:23;;;;;;;7.90;4.10;;;;;;;20.33;94.42;100394.78;218408;1288;96055;-87
2023/09/13 19:51:23;;;;;;;8.60;4.90;;;;;;;20.25;94.83;100398.51;217634;1288;140196;-86
2023/09/13 19:56:24;;;;;;;8.00;4.30;;;;;;;20.16;95.13;100403.88;218261;1288;139185;-87
2023/09/13 20:01:26;;;;;;;7.40;4.40;;;;;;;20.09;95.20;100399.67;217650;1288;141313;-85
2023/09/13 20:06:30;;;;;;;9.40;4.70;;;;;;;19.99;95.44;100400.98;218199;1289;139557;-86
2023/09/13 20:11:32;;;;;;;8.10;4.80;;;;;;;19.86;95.78;100420.48;217673;1289;141335;-88
2023/09/13 20:16:33;;;;;;;7.60;4.10;;;;;;;19.78;96.14;100420.79;218282;1291;105733;-86
2023/09/13 20:21:33;;;;;;;8.90;4.80;;;;;;;19.70;96.73;100428.91;217801;1288;140573;-88
2023/09/13 20:26:34;;;;;;;9.60;4.50;;;;;;;19.61;97.01;100432.41;218326;1289;139177;-87
2023/09/13 20:31:34;;;;;;;7.50;4.60;;;;;;;19.52;97.61;100432.87;217721;1288;142444;-89
2023/09/13 20:36:34;;;;;;;9.60;5.10;;;;;;;19.43;97.95;100432.79;218182;1288;139016;-88
2023/09/13 20:41:35;;;;;;;7.80;4.90;;;;;;;19.34;98.66;100434.84;217763;1288;143679;-89
2023/09/13 20:46:35;;;;;;;9.20;4.30;;;;;;;19.23;99.32;100437.90;218500;1289;96836;-88
2023/09/13 20:51:36;;;;;;;8.20;4.90;;;;;;;19.14;99.68;100440.94;218004;1288;140712;-89
2023/09/13 20:56:36;;;;;;;7.90;4.20;;;;;;;19.06;99.87;100450.30;218345;1288;138739;-89
2023/09/13 21:01:37;;;;;;;7.10;3.90;;;;;;;18.98;99.99;100455.99;217829;1288;140930;-89
2023/09/13 21:06:37;;;;;;;8.70;4.70;;;;;;;18.90;100.00;100462.63;218273;1289;139068;-88
2023/09/13 21:11:38;;;;;;;6.80;4.20;;;;;;;18.82;100.00;100471.49;217744;1288;141928;-88
2023/09/13 21:16:38;;;;;;;9.20;5.20;;;;;;;18.74;100.00;100475.59;218487;1288;96472;-88
2023/09/13 21:21:39;;;;;;;8.00;4.10;;;;;;;18.66;100.00;100479.71;217820;1288;141175;-87
2023/09/13 21:26:39;;;;;;;7.90;4.60;;;;;;;18.57;100.00;100484.45;218139;1288;141584;-88
2023/09/13 21:31:40;;;;;;;9.20;4.60;;;;;;;18.49;100.00;100487.55;217458;1288;142759;-89
2023/09/13 21:36:40;;;;;;;7.50;4.20;;;;;;;18.43;100.00;100490.32;218260;1288;139798;-88
2023/09/13 21:41:41;;;;;;;9.40;4.80;;;;;;;18.34;100.00;100491.99;217568;1288;142695;-89
2023/09/13 21:46:41;;;;;;;8.30;4.40;;;;;;;18.27;100.00;100488.44;218288;1289;96033;-89
2023/09/13 21:51:41;;;;;;;11.60;4.50;;;;;;;18.20;100.00;100490.89;217735;1288;143043;-89
2023/09/13 21:56:42;;;;;;;8.00;4.40;;;;;;;18.13;100.00;100492.53;218279;1288;140997;-89
2023/09/13 22:01:42;;;;;;;8.70;4.90;;;;;;;18.06;100.00;100496.41;217776;1289;141421;-89
2023/09/13 22:06:43;;;;;;;9.00;4.90;;;;;;;17.98;100.00;100501.02;218360;1290;139206;-89
2023/09/13 22:11:43;;;;;;;7.60;4.50;;;;;;;17.92;100.00;100501.90;217656;1289;140849;-89
2023/09/13 22:16:44;;;;;;;8.30;5.00;;;;;;;17.86;100.00;100510.77;218429;1290;95841;-89
2023/09/13 22:21:44;;;;;;;8.20;4.70;;;;;;;17.79;100.00;100513.59;217685;1288;140260;-89
2023/09/13 22:26:44;;;;;;;12.90;6.30;;;;;;;17.74;100.00;100516.54;218399;1288;139547;-89
2023/09/13 22:31:45;;;;;;;11.00;6.70;;;;;;;17.71;100.00;100517.94;217688;1288;143237;-89